createdAt,value
2018-01-22T00:06:49.181Z,3.52
2018-01-22T00:16:49.260Z,3.61
2018-01-22T00:26:49.168Z,3.62
2018-01-22T00:36:49.109Z,3.6
2018-01-22T00:46:49.139Z,3.65
2018-01-22T00:56:49.453Z,3.62
2018-01-22T01:06:49.210Z,3.53
2018-01-22T01:16:49.206Z,3.44
2018-01-22T01:26:49.112Z,3.61
2018-01-22T01:36:49.198Z,3.49
2018-01-22T01:46:49.145Z,3.7
2018-01-22T01:56:49.101Z,3.67
2018-01-22T02:06:49.178Z,3.61
2018-01-22T02:16:49.095Z,3.52
2018-01-22T02:26:49.197Z,3.58
2018-01-22T02:36:49.273Z,3.61
2018-01-22T02:46:49.120Z,3.49
2018-01-22T02:56:49.102Z,3.39
2018-01-22T03:06:49.145Z,3.25
2018-01-22T03:16:49.132Z,3.23
2018-01-22T03:26:49.150Z,3.16
2018-01-22T03:36:49.112Z,3.21
2018-01-22T03:46:49.076Z,3.27
2018-01-22T03:56:49.161Z,3.36
2018-01-22T04:06:49.091Z,3.4
2018-01-22T04:16:49.157Z,3.49
2018-01-22T04:26:49.157Z,3.49
2018-01-22T04:36:49.130Z,3.52
2018-01-22T04:46:49.092Z,3.28
2018-01-22T04:56:49.097Z,3.44
2018-01-22T05:06:49.062Z,3.46
2018-01-22T05:16:49.144Z,3.54
2018-01-22T05:26:49.124Z,3.52
2018-01-22T05:36:49.069Z,3.44
2018-01-22T05:47:23.336Z,3.72
2018-01-22T05:56:54.412Z,3.72
2018-01-22T06:06:49.030Z,3.75
2018-01-22T06:16:49.085Z,3.89
2018-01-22T06:26:49.038Z,3.9
2018-01-22T06:36:49.133Z,3.88
2018-01-22T06:46:49.076Z,4
2018-01-22T06:56:49.145Z,4.04
2018-01-22T07:06:49.094Z,4.16
2018-01-22T07:16:49.069Z,4.07
2018-01-22T07:26:49.022Z,4.19
2018-01-22T07:36:49.184Z,4.32
2018-01-22T07:46:49.107Z,4.47
2018-01-22T07:56:50.097Z,4.4
2018-01-22T08:06:49.155Z,4.61
2018-01-22T08:16:49.059Z,4.76
2018-01-22T08:26:49.101Z,4.8
2018-01-22T08:36:49.091Z,4.94
2018-01-22T08:46:49.086Z,4.94
2018-01-22T08:56:49.029Z,4.92
2018-01-22T09:06:49.226Z,4.98
2018-01-22T09:16:49.155Z,5.3
2018-01-22T09:26:49.194Z,5.43
2018-01-22T09:36:49.242Z,5.77
2018-01-22T09:46:49.249Z,6
2018-01-22T09:56:49.149Z,6.35
2018-01-22T10:06:49.206Z,6.47
2018-01-22T10:16:49.187Z,6.72
2018-01-22T10:26:49.175Z,6.72
2018-01-22T10:36:49.261Z,6.77
2018-01-22T10:46:49.201Z,6.89
2018-01-22T10:56:49.347Z,7.01
2018-01-22T11:06:49.189Z,7.09
2018-01-22T11:16:49.328Z,7.12
2018-01-22T11:26:49.217Z,7.19
2018-01-22T11:36:49.267Z,7.29
2018-01-22T11:46:49.293Z,7.37
2018-01-22T11:56:49.325Z,7.37
2018-01-22T12:06:49.305Z,7.71
2018-01-22T12:16:49.334Z,7.89
2018-01-22T12:26:49.327Z,7.93
2018-01-22T12:36:49.370Z,8.25
2018-01-22T12:46:49.255Z,8.14
2018-01-22T12:56:49.296Z,8.21
2018-01-22T13:06:49.344Z,8.32
2018-01-22T13:16:49.289Z,8.42
2018-01-22T13:26:49.375Z,8.5
2018-01-22T13:36:50.422Z,8.57
2018-01-22T13:46:49.408Z,8.57
2018-01-22T13:56:49.385Z,8.63
2018-01-22T14:06:49.477Z,8.53
2018-01-22T14:16:49.339Z,8.51
2018-01-22T14:26:49.433Z,8.51
2018-01-22T14:36:49.449Z,8.51
2018-01-22T14:46:49.408Z,8.48
2018-01-22T14:56:49.405Z,8.36
2018-01-22T15:06:49.500Z,8.28
2018-01-22T15:16:49.472Z,8.26
2018-01-22T15:26:49.518Z,8.02
2018-01-22T15:36:49.477Z,8.11
2018-01-22T15:46:49.467Z,8
2018-01-22T15:56:49.483Z,7.94
2018-01-22T16:06:49.485Z,7.99
2018-01-22T16:16:49.550Z,7.94
2018-01-22T16:26:49.467Z,7.96
2018-01-22T16:36:49.551Z,7.92
2018-01-22T16:46:49.585Z,7.94
2018-01-22T16:56:49.583Z,7.85
2018-01-22T17:06:49.587Z,7.87
2018-01-22T17:16:49.487Z,7.87
2018-01-22T17:26:49.559Z,7.9
2018-01-22T17:36:49.653Z,7.93
2018-01-22T17:46:49.600Z,7.96
2018-01-22T17:56:49.545Z,7.97
2018-01-22T18:06:49.590Z,7.9
2018-01-22T18:16:49.575Z,7.92
2018-01-22T18:26:49.619Z,7.84
2018-01-22T18:36:49.623Z,7.78
2018-01-22T18:46:49.653Z,7.77
2018-01-22T18:56:49.624Z,7.81
2018-01-22T19:06:49.677Z,7.79
2018-01-22T19:16:49.644Z,7.85
2018-01-22T19:26:49.713Z,7.89
2018-01-22T19:36:49.724Z,7.82
2018-01-22T19:46:49.749Z,7.81
2018-01-22T19:56:49.721Z,7.85
2018-01-22T20:06:49.766Z,7.81
2018-01-22T20:16:49.779Z,7.81
2018-01-22T20:26:49.684Z,7.69
2018-01-22T20:36:49.776Z,7.78
2018-01-22T20:46:50.803Z,7.85
2018-01-22T20:56:49.838Z,7.87
2018-01-22T21:06:49.791Z,7.81
2018-01-22T21:16:49.812Z,7.77
2018-01-22T21:26:53.788Z,7.71
2018-01-22T21:36:49.788Z,7.67
2018-01-22T21:46:49.741Z,7.67
2018-01-22T21:56:49.889Z,7.78
2018-01-22T22:06:49.836Z,7.75
2018-01-22T22:16:49.858Z,7.79
2018-01-22T22:26:49.946Z,7.52
2018-01-22T22:36:51.946Z,7.75
2018-01-22T22:46:50.975Z,7.62
2018-01-22T22:56:51.058Z,7.69
2018-01-22T23:06:49.987Z,7.63
2018-01-22T23:16:50.901Z,7.72
2018-01-22T23:26:49.869Z,7.81
2018-01-22T23:36:49.898Z,7.77
2018-01-22T23:46:49.901Z,7.78
2018-01-22T23:56:49.890Z,7.75
